Impacts METAR Board INFO
IDs:

KBFM - Mobile/Downtown Arpt, AL, US

Updated at: 0836 UTC 23 Feb 2018
Potential Impact None Slight Moderate High
Time22/20Z 22/21Z 22/22Z 22/23Z 23/00Z 23/01Z 23/02Z 23/03Z 23/04Z 23/05Z 23/06Z 23/07Z 23/08Z
VIS10 10 10 10 10 10 10 10 9 7 9 0.75 1.75
CIG-- -- -- -- -- -- -- 11 -- 7 -- 12 7
CoverSCTFEWCLRFEWCLRCLRCLRBKNCLRBKNFEWOVXOVC
FltCatVFRVFRVFRVFRVFRVFRVFRMVFRVFRIFRVFRLIFRIFR
WX----------------------BRBR
WDir17017017017016014016014014012016000
WSpd10 8 8 8 9 8 6 5 5 8 4 0 0
WGst-- -- -- -- -- -- -- -- -- -- -- -- --
Raw hourly METARs
KBFM 221953Z 17010KT 10SM SCT045 26/21 A3033 RMK AO2 SLP270 T02610206
KBFM 222053Z 17008KT 10SM FEW038 26/21 A3031 RMK AO2 SLP264 T02610211 58020
KBFM 222153Z 17008KT 10SM CLR 26/21 A3031 RMK AO2 SLP262 T02560211
KBFM 222253Z 17008KT 10SM FEW041 24/21 A3031 RMK AO2 SLP264 T02390211
KBFM 222353Z 16009KT 10SM CLR 23/21 A3032 RMK AO2 SLP266 T02280211 10267 20228 53002
KBFM 230053Z 14008KT 10SM CLR 22/21 A3033 RMK AO2 SLP271 T02170206
KBFM 230153Z 16006KT 10SM CLR 22/21 A3034 RMK AO2 SLP274 T02170206
KBFM 230302Z AUTO 14005KT 10SM BKN011 21/20 A3036 RMK AO2 T02060200
KBFM 230353Z AUTO 14005KT 9SM CLR 20/20 A3036 RMK AO2 SLP280 T02000200
KBFM 230501Z AUTO 12008KT 7SM BKN007 BKN020 21/20 A3035 RMK AO2 T02060200
KBFM 230553Z AUTO 16004KT 9SM FEW013 20/20 A3034 RMK AO2 SLP274 T02000200 10228 20194 402670189 58006
KBFM 230653Z AUTO 00000KT 3/4SM BR VV012 18/18 A3033 RMK AO2 SLP270 T01830183
KBFM 230804Z AUTO 00000KT 1 3/4SM BR OVC007 19/19 A3032 RMK AO2 T01940194